Time;durP1;ratioP1;P1;durP2;ratioP2;P2;SDS_P1;SDS_P2;PMS_P1;PMS_P2;Temp;Humidity;BMP_temperature;BMP_pressure;BME280_temperature;BME280_humidity;BME280_pressure;Samples;Min_cycle;Max_cycle;Signal;HPM_P1;HPM_P2
2022/01/06 00:01:54;;;;;;;11.53;4.30;;;2.20;79.70;;;;;;4934412;29;20206;-75
2022/01/06 00:04:20;;;;;;;10.10;3.93;;;2.20;81.00;;;;;;4933957;29;20291;-75
2022/01/06 00:06:45;;;;;;;10.93;4.80;;;2.20;79.00;;;;;;4933645;29;20182;-75
2022/01/06 00:09:15;;;;;;;10.47;3.47;;;2.30;85.70;;;;;;4934374;29;20183;-75
2022/01/06 00:11:41;;;;;;;10.40;4.07;;;2.30;80.30;;;;;;4934340;29;20219;-75
2022/01/06 00:14:17;;;;;;;10.80;5.03;;;2.30;90.00;;;;;;4934038;29;20246;-76
2022/01/06 00:24:49;;;;;;;12.53;4.23;;;2.20;99.90;;;;;;4933535;29;20339;-75
2022/01/06 00:27:15;;;;;;;9.17;4.60;;;2.20;99.90;;;;;;4933950;29;20250;-75
2022/01/06 00:29:41;;;;;;;11.53;4.20;;;2.30;99.90;;;;;;4933714;29;20187;-75
2022/01/06 00:32:07;;;;;;;8.50;4.07;;;2.20;99.90;;;;;;4933501;29;20230;-74
2022/01/06 00:34:33;;;;;;;10.80;4.93;;;2.30;99.90;;;;;;4933011;29;20274;-74
2022/01/06 00:36:59;;;;;;;11.80;4.50;;;2.30;99.90;;;;;;4933570;29;20280;-74
2022/01/06 00:39:27;;;;;;;9.37;4.37;;;2.20;99.90;;;;;;4933502;29;20187;-74
2022/01/06 00:41:56;;;;;;;8.07;3.57;;;2.20;99.90;;;;;;4933541;29;20190;-74
2022/01/06 00:44:22;;;;;;;9.80;3.93;;;2.20;99.90;;;;;;4932939;29;20178;-73
2022/01/06 00:46:47;;;;;;;9.80;3.93;;;2.20;99.90;;;;;;4933087;29;20286;-75
2022/01/06 00:49:13;;;;;;;7.67;3.83;;;2.20;99.90;;;;;;4933662;29;20187;-74
2022/01/06 00:51:38;;;;;;;11.83;3.90;;;2.20;99.90;;;;;;4933506;29;20207;-74
2022/01/06 00:54:04;;;;;;;8.07;3.57;;;2.20;99.90;;;;;;4933637;29;20176;-74
2022/01/06 00:56:30;;;;;;;9.00;3.67;;;2.20;99.90;;;;;;4933020;29;20195;-74
2022/01/06 00:58:55;;;;;;;10.03;3.63;;;2.10;99.90;;;;;;4933832;29;20678;-74
2022/01/06 01:01:21;;;;;;;7.53;4.17;;;2.10;99.90;;;;;;4933750;29;20278;-76
2022/01/06 01:03:46;;;;;;;7.37;3.73;;;2.10;99.90;;;;;;4933593;29;20361;-73
2022/01/06 01:06:12;;;;;;;9.50;3.90;;;2.10;99.90;;;;;;4932943;29;20268;-74
2022/01/06 01:08:38;;;;;;;10.47;4.00;;;2.10;99.90;;;;;;4933283;29;20186;-74
2022/01/06 01:11:05;;;;;;;7.63;3.40;;;2.10;99.90;;;;;;4933348;29;20218;-74
2022/01/06 01:13:32;;;;;;;10.20;4.23;;;2.10;99.90;;;;;;4933354;29;20565;-74
2022/01/06 01:16:09;;;;;;;9.93;3.70;;;2.00;99.90;;;;;;4933169;29;20203;-74
2022/01/06 01:18:35;;;;;;;10.77;4.23;;;1.90;99.90;;;;;;4933398;29;20223;-74
2022/01/06 01:21:00;;;;;;;10.70;3.70;;;1.90;99.90;;;;;;4933728;29;20184;-74
2022/01/06 01:23:26;;;;;;;8.90;3.63;;;2.00;99.90;;;;;;4933399;29;20203;-74
2022/01/06 01:25:52;;;;;;;9.37;3.70;;;2.00;99.90;;;;;;4932821;29;20199;-74
2022/01/06 01:28:19;;;;;;;8.87;3.87;;;2.00;99.90;;;;;;4933572;29;20172;-74
2022/01/06 01:31:19;;;;;;;8.10;3.70;;;2.00;99.90;;;;;;4933454;29;20267;-75
2022/01/06 01:33:45;;;;;;;10.77;4.33;;;1.90;99.90;;;;;;4916072;29;20227;-74
2022/01/06 01:36:12;;;;;;;8.00;3.67;;;1.80;99.90;;;;;;4933752;29;20203;-74
2022/01/06 01:38:39;;;;;;;12.27;3.87;;;1.80;99.90;;;;;;4936932;29;20179;-74
2022/01/06 01:41:05;;;;;;;10.73;3.77;;;1.90;99.90;;;;;;4936895;29;20230;-74
2022/01/06 01:43:31;;;;;;;7.97;4.33;;;1.90;99.90;;;;;;4936752;29;20182;-74
2022/01/06 01:45:58;;;;;;;10.57;3.70;;;1.90;99.90;;;;;;4936058;29;20577;-74
2022/01/06 01:48:33;;;;;;;7.83;3.83;;;2.00;99.90;;;;;;4936719;29;20183;-75
2022/01/06 01:50:59;;;;;;;10.27;3.70;;;1.90;99.90;;;;;;4936511;29;20183;-75
2022/01/06 01:53:25;;;;;;;10.47;3.50;;;1.90;99.90;;;;;;4936737;29;20202;-74
2022/01/06 01:55:51;;;;;;;10.23;3.80;;;2.00;99.90;;;;;;4936132;29;20562;-74
2022/01/06 01:58:17;;;;;;;9.97;4.17;;;2.00;99.90;;;;;;4936699;29;20215;-74
2022/01/06 02:00:42;;;;;;;11.50;4.20;;;2.00;99.90;;;;;;4936595;29;20816;-75
2022/01/06 02:03:08;;;;;;;9.60;3.93;;;1.90;99.90;;;;;;4936766;29;20203;-74
2022/01/06 02:05:34;;;;;;;10.83;4.07;;;1.90;99.90;;;;;;4935849;29;20213;-74
2022/01/06 02:08:00;;;;;;;6.47;3.43;;;2.00;99.90;;;;;;4936689;29;20175;-74
2022/01/06 02:10:27;;;;;;;7.30;3.50;;;2.00;99.90;;;;;;4936452;29;20188;-75
2022/01/06 02:12:55;;;;;;;10.20;4.00;;;2.00;99.90;;;;;;4936386;29;20218;-75
2022/01/06 02:15:20;;;;;;;11.30;3.77;;;2.00;99.90;;;;;;4935699;29;20206;-75
2022/01/06 02:17:49;;;;;;;10.43;3.63;;;2.00;99.90;;;;;;4936066;29;20175;-75
2022/01/06 02:20:17;;;;;;;8.43;3.67;;;2.10;99.90;;;;;;4936360;29;20182;-75
2022/01/06 02:22:43;;;;;;;11.77;3.60;;;2.10;99.90;;;;;;4936216;29;20561;-75
2022/01/06 02:25:13;;;;;;;8.70;4.13;;;2.20;99.90;;;;;;4935650;29;20207;-75
2022/01/06 02:27:40;;;;;;;10.53;3.93;;;2.10;99.90;;;;;;4936106;29;20175;-75
2022/01/06 02:30:07;;;;;;;6.10;3.80;;;2.20;99.90;;;;;;4935950;29;20226;-75
2022/01/06 02:32:33;;;;;;;7.57;3.80;;;2.30;99.90;;;;;;4935738;29;20297;-74
2022/01/06 02:35:03;;;;;;;7.93;3.50;;;2.30;99.90;;;;;;4935580;29;20283;-74
2022/01/06 02:37:29;;;;;;;10.33;3.60;;;2.10;99.90;;;;;;4936150;29;20175;-74
2022/01/06 02:39:54;;;;;;;8.70;3.70;;;2.20;99.90;;;;;;4935881;29;20222;-75
2022/01/06 02:42:20;;;;;;;5.90;4.00;;;2.20;99.90;;;;;;4935769;29;20199;-74
2022/01/06 02:44:45;;;;;;;6.97;3.07;;;2.30;99.90;;;;;;4935148;29;20286;-74
2022/01/06 02:47:11;;;;;;;9.60;3.23;;;2.30;99.90;;;;;;4934587;29;20186;-74
2022/01/06 02:49:36;;;;;;;7.03;3.50;;;2.20;99.90;;;;;;4935428;29;20187;-75
2022/01/06 02:52:02;;;;;;;6.60;3.03;;;2.10;99.90;;;;;;4935536;29;20219;-75
2022/01/06 02:54:28;;;;;;;5.30;2.97;;;2.20;99.90;;;;;;4934777;29;20600;-75
2022/01/06 02:56:53;;;;;;;7.30;3.30;;;2.20;99.90;;;;;;4935440;29;20179;-75
2022/01/06 02:59:20;;;;;;;8.43;3.33;;;2.20;99.90;;;;;;4935362;29;20694;-75
2022/01/06 03:01:45;;;;;;;6.00;3.00;;;2.20;99.90;;;;;;4935294;29;20207;-75
2022/01/06 03:04:12;;;;;;;8.93;3.07;;;2.20;99.90;;;;;;4935460;29;20179;-75
2022/01/06 03:06:39;;;;;;;8.57;3.00;;;2.20;99.90;;;;;;4935036;29;20202;-75
2022/01/06 03:09:06;;;;;;;7.30;3.00;;;2.20;99.90;;;;;;4935427;29;20311;-75
2022/01/06 03:11:33;;;;;;;7.47;3.40;;;2.20;99.90;;;;;;4918127;29;20266;-75
2022/01/06 03:14:00;;;;;;;6.00;3.17;;;2.30;99.90;;;;;;4935202;29;20262;-75
2022/01/06 03:16:26;;;;;;;8.43;3.67;;;2.30;99.90;;;;;;4934855;29;20214;-75
2022/01/06 03:18:52;;;;;;;10.50;3.40;;;2.20;99.90;;;;;;4935215;29;20186;-75
2022/01/06 03:21:17;;;;;;;8.87;3.07;;;2.20;99.90;;;;;;4935188;29;20270;-75
2022/01/06 03:23:43;;;;;;;7.63;3.50;;;2.30;99.90;;;;;;4934964;29;20198;-75
2022/01/06 03:26:09;;;;;;;9.37;3.83;;;2.20;99.90;;;;;;4934537;29;20269;-75
2022/01/06 03:28:34;;;;;;;5.77;3.30;;;2.20;99.90;;;;;;4934741;29;20270;-75
2022/01/06 03:31:00;;;;;;;5.10;2.87;;;2.30;99.90;;;;;;4934950;29;20183;-75
2022/01/06 03:33:26;;;;;;;7.43;2.90;;;2.30;99.90;;;;;;4934975;29;20625;-75
2022/01/06 03:35:52;;;;;;;5.70;2.90;;;2.30;99.90;;;;;;4934209;29;20282;-75
2022/01/06 03:38:17;;;;;;;6.77;3.30;;;2.40;99.90;;;;;;4934784;29;20210;-75
2022/01/06 03:40:43;;;;;;;5.63;2.90;;;2.30;99.90;;;;;;4934382;29;20723;-75
2022/01/06 03:43:09;;;;;;;7.93;3.03;;;2.40;99.90;;;;;;4934743;29;20183;-74
2022/01/06 03:45:35;;;;;;;6.77;2.90;;;2.40;99.90;;;;;;4934151;29;20635;-74
2022/01/06 03:48:01;;;;;;;5.53;2.90;;;2.40;99.90;;;;;;4934796;29;20178;-75
2022/01/06 03:50:27;;;;;;;13.43;3.17;;;2.40;99.90;;;;;;4934674;29;20183;-74
2022/01/06 03:52:52;;;;;;;6.77;3.23;;;2.20;99.90;;;;;;4934598;29;20238;-75
2022/01/06 03:55:19;;;;;;;5.73;3.07;;;2.30;99.90;;;;;;4934100;29;20195;-75
2022/01/06 03:57:46;;;;;;;6.20;3.20;;;2.40;99.90;;;;;;4934446;29;20188;-75
2022/01/06 04:00:15;;;;;;;5.87;3.00;;;2.30;99.90;;;;;;4934238;29;20183;-74
2022/01/06 04:02:41;;;;;;;7.70;3.53;;;2.30;99.90;;;;;;4934616;29;20656;-74
2022/01/06 04:05:08;;;;;;;6.80;3.23;;;2.40;99.90;;;;;;4933576;29;20270;-74
2022/01/06 04:07:35;;;;;;;7.03;3.07;;;2.30;99.90;;;;;;4934176;29;20672;-75
2022/01/06 04:10:00;;;;;;;7.50;3.00;;;2.30;99.90;;;;;;4934237;29;20274;-74
2022/01/06 04:12:26;;;;;;;7.37;3.43;;;2.30;99.90;;;;;;4934073;29;20214;-74
2022/01/06 04:14:52;;;;;;;6.57;3.50;;;2.30;99.90;;;;;;4933527;29;20195;-74
2022/01/06 04:17:17;;;;;;;5.83;3.40;;;2.30;99.90;;;;;;4934362;29;20186;-75
2022/01/06 04:19:43;;;;;;;6.03;3.17;;;2.30;99.90;;;;;;4934102;29;20186;-75
2022/01/06 04:22:08;;;;;;;5.20;3.30;;;2.30;99.90;;;;;;4934193;29;20171;-75
2022/01/06 04:24:34;;;;;;;6.50;3.20;;;2.40;99.90;;;;;;4933717;29;20175;-74
2022/01/06 04:27:00;;;;;;;7.40;3.50;;;2.30;99.90;;;;;;4934094;29;20191;-75
2022/01/06 04:29:26;;;;;;;4.73;2.67;;;2.40;99.90;;;;;;4934174;29;20227;-74
2022/01/06 04:31:52;;;;;;;5.27;3.30;;;2.30;99.90;;;;;;4934122;29;20259;-75
2022/01/06 04:34:18;;;;;;;10.43;3.60;;;2.40;99.90;;;;;;4933894;29;20210;-75
2022/01/06 04:36:49;;;;;;;7.30;3.57;;;2.30;99.90;;;;;;4934217;29;20179;-75
2022/01/06 04:39:15;;;;;;;7.80;3.57;;;2.40;99.90;;;;;;4934172;29;20191;-74
2022/01/06 04:41:40;;;;;;;7.50;3.27;;;2.40;99.90;;;;;;4934047;29;20270;-75
2022/01/06 04:44:06;;;;;;;7.53;3.03;;;2.40;99.90;;;;;;4933857;29;20553;-75
2022/01/06 04:46:31;;;;;;;6.57;3.00;;;2.40;99.90;;;;;;4933197;29;20214;-75
2022/01/06 04:48:57;;;;;;;8.43;3.27;;;2.30;99.90;;;;;;4933674;29;20187;-74
2022/01/06 04:51:22;;;;;;;6.93;2.90;;;2.40;99.90;;;;;;4933694;29;20837;-75
2022/01/06 04:53:48;;;;;;;5.73;3.23;;;2.30;99.90;;;;;;4933686;29;20234;-74
2022/01/06 04:56:13;;;;;;;4.77;3.43;;;2.40;99.90;;;;;;4933142;29;20207;-74
2022/01/06 04:58:39;;;;;;;4.37;2.83;;;2.40;99.90;;;;;;4933890;29;20171;-74
2022/01/06 05:01:05;;;;;;;5.57;3.13;;;2.30;99.90;;;;;;4933635;29;20285;-74
2022/01/06 05:03:30;;;;;;;8.13;3.30;;;2.30;99.90;;;;;;4933854;29;20171;-74
2022/01/06 05:05:55;;;;;;;5.40;3.10;;;2.30;99.90;;;;;;4933164;29;20203;-76
2022/01/06 05:08:21;;;;;;;4.37;3.10;;;2.30;99.90;;;;;;4933523;29;20641;-74
2022/01/06 05:10:47;;;;;;;6.03;3.10;;;2.40;99.90;;;;;;4934364;29;20648;-75
2022/01/06 05:13:12;;;;;;;4.33;3.20;;;2.30;99.90;;;;;;4937606;29;20310;-75
2022/01/06 05:15:38;;;;;;;5.83;3.13;;;2.40;99.90;;;;;;4936970;29;20689;-75
2022/01/06 05:18:04;;;;;;;6.07;3.30;;;2.40;99.90;;;;;;4937151;29;20281;-75
2022/01/06 05:20:30;;;;;;;4.83;3.03;;;2.40;99.90;;;;;;4937388;29;20171;-75
2022/01/06 05:22:57;;;;;;;6.70;3.50;;;2.40;99.90;;;;;;4937186;29;20183;-74
2022/01/06 05:25:28;;;;;;;6.37;3.50;;;2.30;99.90;;;;;;4936564;29;20227;-74
2022/01/06 05:27:54;;;;;;;6.33;3.10;;;2.30;99.90;;;;;;4937313;29;20179;-75
2022/01/06 05:30:21;;;;;;;5.43;3.30;;;2.30;99.90;;;;;;4937255;29;20219;-74
2022/01/06 05:32:46;;;;;;;4.87;3.40;;;2.30;99.90;;;;;;4936927;29;20345;-74
2022/01/06 05:35:12;;;;;;;6.63;3.30;;;2.30;99.90;;;;;;4936506;29;20286;-75
2022/01/06 05:37:37;;;;;;;5.10;3.07;;;2.30;99.90;;;;;;4936948;29;20179;-74
2022/01/06 05:40:04;;;;;;;6.13;3.20;;;2.20;99.90;;;;;;4937019;29;20206;-75
2022/01/06 05:42:29;;;;;;;5.90;3.10;;;2.20;99.90;;;;;;4937207;29;20739;-75
2022/01/06 05:44:55;;;;;;;3.50;2.97;;;2.20;99.90;;;;;;4936261;29;20199;-75
2022/01/06 05:47:20;;;;;;;8.00;3.80;;;2.20;99.90;;;;;;4937294;29;20683;-75
2022/01/06 05:49:46;;;;;;;4.47;3.10;;;2.30;99.90;;;;;;4936941;29;20648;-75
2022/01/06 05:52:12;;;;;;;9.60;3.30;;;2.20;99.90;;;;;;4936640;29;20207;-74
2022/01/06 05:54:38;;;;;;;4.83;3.53;;;2.20;99.90;;;;;;4936149;29;20233;-74
2022/01/06 05:57:03;;;;;;;5.17;3.20;;;2.20;99.90;;;;;;4936794;29;20175;-75
2022/01/06 05:59:31;;;;;;;6.87;3.30;;;2.20;99.90;;;;;;4936755;29;20182;-74
2022/01/06 06:01:57;;;;;;;5.77;3.27;;;2.10;99.90;;;;;;4936506;29;20678;-74
2022/01/06 06:04:23;;;;;;;6.53;3.10;;;2.20;99.90;;;;;;4936232;29;20179;-74
2022/01/06 06:06:48;;;;;;;5.63;3.33;;;2.20;99.90;;;;;;4936654;29;20183;-75
2022/01/06 06:09:14;;;;;;;3.80;3.20;;;2.20;99.90;;;;;;4936358;29;20182;-75
2022/01/06 06:11:39;;;;;;;5.07;3.20;;;2.20;99.90;;;;;;4936598;29;20219;-74
2022/01/06 06:14:05;;;;;;;6.37;3.30;;;2.20;99.90;;;;;;4936531;29;20528;-75
2022/01/06 06:16:31;;;;;;;5.40;3.17;;;2.20;99.90;;;;;;4935898;29;20202;-75
2022/01/06 06:18:56;;;;;;;22.40;11.87;;;2.30;99.90;;;;;;4936322;29;20216;-76
2022/01/06 06:21:22;;;;;;;9.63;6.80;;;2.40;99.90;;;;;;4936120;29;20702;-75
2022/01/06 06:23:47;;;;;;;7.47;5.67;;;2.30;99.90;;;;;;4936165;29;20179;-75
2022/01/06 06:26:13;;;;;;;6.47;4.23;;;2.30;99.90;;;;;;4935479;29;20262;-76
2022/01/06 06:28:38;;;;;;;3.70;3.10;;;2.30;99.90;;;;;;4936197;29;20179;-75
2022/01/06 06:31:04;;;;;;;4.90;3.40;;;2.00;99.90;;;;;;4935987;29;20182;-76
2022/01/06 06:33:29;;;;;;;3.07;2.67;;;2.30;99.90;;;;;;4936129;29;20179;-76
2022/01/06 06:35:55;;;;;;;3.80;2.80;;;2.30;99.90;;;;;;4935451;29;20199;-76
2022/01/06 06:38:21;;;;;;;6.53;3.47;;;2.30;99.90;;;;;;4935843;29;20202;-76
2022/01/06 06:40:46;;;;;;;4.23;3.30;;;2.30;99.90;;;;;;4936036;29;20183;-76
2022/01/06 06:43:13;;;;;;;4.53;3.17;;;2.20;99.90;;;;;;4935819;29;20171;-75
2022/01/06 06:45:39;;;;;;;6.87;4.13;;;2.20;99.90;;;;;;4935154;29;20215;-75
2022/01/06 06:48:05;;;;;;;4.70;3.27;;;2.30;99.90;;;;;;4935634;29;20544;-76
2022/01/06 06:50:30;;;;;;;4.57;2.97;;;2.30;99.90;;;;;;4935808;29;20198;-75
2022/01/06 06:52:56;;;;;;;8.43;5.73;;;2.30;99.90;;;;;;4935606;29;20676;-76
2022/01/06 06:55:21;;;;;;;5.33;3.80;;;2.30;99.90;;;;;;4935304;29;20760;-75
2022/01/06 06:57:47;;;;;;;4.07;3.57;;;2.30;99.90;;;;;;4935966;29;20180;-76
2022/01/06 07:00:13;;;;;;;16.13;11.53;;;2.30;99.90;;;;;;4935853;29;20373;-75
2022/01/06 07:02:39;;;;;;;5.93;4.90;;;2.20;99.90;;;;;;4935803;29;20323;-75
2022/01/06 07:05:05;;;;;;;5.90;4.97;;;2.20;99.90;;;;;;4935074;29;20360;-76
2022/01/06 07:07:31;;;;;;;5.33;3.93;;;2.20;99.90;;;;;;4935534;29;20209;-76
2022/01/06 07:09:57;;;;;;;7.33;3.93;;;2.20;99.90;;;;;;4935725;29;20198;-76
2022/01/06 07:12:22;;;;;;;6.07;4.40;;;2.20;99.90;;;;;;4935521;29;20548;-76
2022/01/06 07:14:48;;;;;;;8.87;7.20;;;2.20;99.90;;;;;;4934975;29;20199;-76
2022/01/06 07:17:14;;;;;;;6.27;5.70;;;2.30;99.90;;;;;;4935281;29;20281;-76
2022/01/06 07:19:39;;;;;;;5.03;4.53;;;2.30;99.90;;;;;;4935676;29;20183;-75
2022/01/06 07:22:05;;;;;;;5.37;3.43;;;2.10;99.90;;;;;;4935086;29;20254;-76
2022/01/06 07:24:32;;;;;;;3.50;3.20;;;2.10;99.90;;;;;;4934788;29;20218;-75
2022/01/06 07:26:58;;;;;;;4.57;3.30;;;2.10;99.90;;;;;;4935161;29;20219;-76
2022/01/06 07:29:23;;;;;;;4.57;3.50;;;2.00;99.90;;;;;;4935175;29;20187;-76
2022/01/06 07:31:49;;;;;;;5.37;3.20;;;2.10;99.90;;;;;;4935029;29;20215;-77
2022/01/06 07:34:14;;;;;;;7.87;6.10;;;2.00;99.90;;;;;;4934381;29;20266;-73
2022/01/06 07:36:40;;;;;;;5.03;3.87;;;2.20;99.90;;;;;;4934356;29;20266;-75
2022/01/06 07:39:06;;;;;;;9.13;4.90;;;2.30;99.90;;;;;;4935102;29;20207;-74
2022/01/06 07:41:31;;;;;;;5.33;4.23;;;2.40;99.90;;;;;;4934696;29;20270;-74
2022/01/06 07:43:57;;;;;;;8.13;5.20;;;2.50;99.90;;;;;;4930159;29;20581;-75
2022/01/06 07:46:23;;;;;;;5.70;3.70;;;2.60;99.90;;;;;;4924539;29;20631;-73
2022/01/06 07:48:56;;;;;;;6.50;4.00;;;2.40;99.90;;;;;;4930374;29;20214;-75
2022/01/06 07:51:26;;;;;;;5.87;3.27;;;2.40;99.90;;;;;;4928704;29;20200;-74
2022/01/06 07:53:53;;;;;;;5.70;4.03;;;2.20;99.90;;;;;;4919455;29;20211;-74
2022/01/06 07:56:18;;;;;;;5.63;3.63;;;2.30;99.90;;;;;;4915209;29;20196;-73
2022/01/06 07:58:45;;;;;;;6.73;3.80;;;2.20;99.90;;;;;;4915721;29;20262;-74
2022/01/06 08:01:11;;;;;;;4.27;3.57;;;2.50;99.90;;;;;;4915803;29;20184;-73
2022/01/06 08:03:37;;;;;;;5.83;3.80;;;2.50;99.90;;;;;;4915441;29;20183;-73
2022/01/06 08:06:02;;;;;;;6.10;3.70;;;2.60;99.90;;;;;;4915275;29;20207;-74
2022/01/06 08:08:28;;;;;;;4.87;3.60;;;2.60;99.90;;;;;;4915224;29;20270;-74
2022/01/06 08:10:53;;;;;;;6.73;3.40;;;2.60;99.90;;;;;;4927065;29;20201;-74
2022/01/06 08:13:19;;;;;;;5.40;3.70;;;2.60;99.90;;;;;;4934397;29;20278;-76
2022/01/06 08:15:45;;;;;;;6.67;3.43;;;2.70;99.90;;;;;;4933805;29;20203;-75
2022/01/06 08:18:10;;;;;;;5.30;3.70;;;2.80;99.90;;;;;;4925691;29;20178;-75
2022/01/06 08:20:38;;;;;;;8.53;3.80;;;2.80;99.90;;;;;;4914889;29;20186;-76
2022/01/06 08:23:04;;;;;;;4.87;3.77;;;2.90;99.90;;;;;;4915514;29;20179;-74
2022/01/06 08:25:30;;;;;;;4.00;3.37;;;3.10;98.00;;;;;;4914713;29;20777;-73
2022/01/06 08:27:55;;;;;;;6.33;3.30;;;2.90;94.90;;;;;;4915388;29;20184;-77
2022/01/06 08:30:21;;;;;;;7.27;3.77;;;2.80;99.90;;;;;;4915435;29;20191;-75
2022/01/06 08:32:46;;;;;;;7.07;3.47;;;2.80;99.90;;;;;;4915156;29;20211;-76
2022/01/06 08:35:12;;;;;;;5.57;3.50;;;3.00;99.90;;;;;;4914714;29;20756;-76
2022/01/06 08:37:37;;;;;;;7.73;3.40;;;3.10;99.90;;;;;;4915495;29;20184;-76
2022/01/06 08:40:04;;;;;;;5.53;3.20;;;3.20;59.50;;;;;;4920652;29;20186;-77
2022/01/06 08:42:29;;;;;;;4.93;3.30;;;4.70;1.00;;;;;;4932850;29;20187;-78
2022/01/06 08:44:55;;;;;;;7.23;3.07;;;5.80;99.90;;;;;;4935266;29;20195;-74
2022/01/06 08:47:20;;;;;;;4.37;3.00;;;5.70;1.00;;;;;;4938107;29;20265;-74
2022/01/06 08:49:46;;;;;;;4.70;2.90;;;5.00;99.90;;;;;;4938414;29;20190;-76
2022/01/06 08:52:11;;;;;;;4.67;2.80;;;4.50;1.00;;;;;;4937823;29;20219;-76
2022/01/06 08:54:37;;;;;;;5.70;2.90;;;4.10;1.00;;;;;;4937519;29;20199;-76
2022/01/06 08:57:03;;;;;;;3.77;2.87;;;4.80;1.00;;;;;;4939534;29;20205;-77
2022/01/06 08:59:29;;;;;;;4.83;3.17;;;6.50;1.00;;;;;;4939093;29;20179;-77
2022/01/06 09:01:54;;;;;;;3.93;2.87;;;7.60;1.00;;;;;;4939030;29;20175;-77
2022/01/06 09:04:20;;;;;;;4.20;2.80;;;7.50;99.90;;;;;;4938053;29;20233;-75
2022/01/06 09:06:48;;;;;;;5.60;2.70;;;6.80;99.90;;;;;;4938354;29;20270;-75
2022/01/06 09:09:14;;;;;;;5.13;2.63;;;8.00;1.00;;;;;;4936119;29;20356;-77
2022/01/06 09:11:40;;;;;;;3.33;2.17;;;8.30;1.00;;;;;;4919094;29;20650;-74
2022/01/06 09:14:05;;;;;;;4.87;2.37;;;8.30;1.00;;;;;;4919325;29;20191;-74
2022/01/06 09:16:31;;;;;;;4.97;2.80;;;9.10;1.00;;;;;;4918372;29;20618;-74
2022/01/06 09:18:57;;;;;;;5.43;2.70;;;9.80;99.90;;;;;;4919025;29;20190;-75
2022/01/06 09:21:22;;;;;;;4.93;2.70;;;10.60;99.90;;;;;;4918992;29;20180;-75
2022/01/06 09:23:51;;;;;;;4.40;2.63;;;10.70;1.00;;;;;;4918714;29;20607;-74
2022/01/06 09:26:17;;;;;;;5.93;2.93;;;11.00;1.00;;;;;;4927860;29;20281;-75
2022/01/06 09:28:43;;;;;;;6.33;2.67;;;10.60;1.00;;;;;;4927438;29;20191;-74
2022/01/06 09:31:09;;;;;;;7.10;2.90;;;8.80;99.90;;;;;;4925881;29;20743;-75
2022/01/06 09:33:34;;;;;;;4.60;2.70;;;7.30;99.90;;;;;;4927485;29;20175;-74
2022/01/06 09:36:00;;;;;;;4.33;2.83;;;6.60;99.90;;;;;;4926485;29;20207;-76
2022/01/06 09:38:25;;;;;;;5.07;3.00;;;6.30;1.00;;;;;;4936754;29;20190;-75
2022/01/06 09:40:51;;;;;;;6.40;3.07;;;6.00;99.90;;;;;;4937170;29;20525;-75
2022/01/06 09:43:24;;;;;;;6.37;2.87;;;5.90;99.90;;;;;;4937009;29;20179;-75
2022/01/06 09:45:50;;;;;;;5.90;3.30;;;5.80;1.00;;;;;;4936294;29;20560;-76
2022/01/06 09:48:15;;;;;;;5.37;2.77;;;5.70;1.00;;;;;;4927167;29;20673;-76
2022/01/06 09:50:43;;;;;;;7.17;3.13;;;5.80;1.00;;;;;;4922830;29;20191;-75
2022/01/06 09:53:12;;;;;;;11.40;3.60;;;5.70;99.90;;;;;;4917931;29;20215;-74
2022/01/06 09:55:41;;;;;;;5.60;3.10;;;6.40;1.00;;;;;;4917670;29;20259;-76
2022/01/06 09:58:07;;;;;;;4.77;3.03;;;6.40;1.00;;;;;;4918411;29;20649;-74
2022/01/06 10:00:34;;;;;;;10.27;3.47;;;5.90;99.90;;;;;;4917812;29;20183;-74
2022/01/06 10:03:06;;;;;;;7.00;3.70;;;6.10;1.00;;;;;;4917947;29;20192;-74
2022/01/06 10:05:46;;;;;;;7.87;3.77;;;6.10;99.90;;;;;;4917016;29;20202;-76
2022/01/06 10:08:13;;;;;;;7.67;3.13;;;7.50;1.00;;;;;;4918783;29;20235;-76
2022/01/06 10:10:40;;;;;;;7.30;3.00;;;8.80;99.90;;;;;;4917523;29;20236;-75
2022/01/06 10:13:08;;;;;;;9.23;3.13;;;8.30;1.00;;;;;;4917728;29;20274;-76
2022/01/06 10:15:36;;;;;;;9.87;3.20;;;7.60;1.00;;;;;;4917152;29;20196;-76
2022/01/06 10:18:12;;;;;;;8.27;3.00;;;6.90;1.00;;;;;;4917630;29;20219;-76
2022/01/06 10:20:38;;;;;;;7.23;3.07;;;7.00;99.90;;;;;;4917347;29;20499;-76
2022/01/06 10:23:11;;;;;;;6.27;2.77;;;6.40;99.90;;;;;;4917350;29;20462;-75
2022/01/06 10:25:38;;;;;;;9.50;3.00;;;6.20;56.10;;;;;;4916663;29;20664;-74
2022/01/06 10:28:17;;;;;;;6.57;3.00;;;6.00;99.90;;;;;;4917498;29;20688;-75
2022/01/06 10:30:48;;;;;;;6.57;3.20;;;5.70;1.00;;;;;;4917467;29;20228;-75
2022/01/06 10:33:33;;;;;;;8.23;3.07;;;5.70;99.90;;;;;;4917167;29;20282;-75
2022/01/06 10:36:08;;;;;;;7.77;2.63;;;5.60;99.90;;;;;;4916536;29;20606;-75
2022/01/06 10:38:35;;;;;;;7.80;3.40;;;5.60;1.00;;;;;;4917423;29;20570;-75
2022/01/06 10:41:14;;;;;;;6.27;2.67;;;5.30;1.00;;;;;;4917220;29;20592;-75
2022/01/06 10:43:41;;;;;;;4.97;2.57;;;5.30;1.00;;;;;;4922011;29;20235;-75
2022/01/06 10:46:07;;;;;;;8.70;3.70;;;5.20;1.00;;;;;;4916369;29;20723;-75
2022/01/06 10:48:34;;;;;;;8.33;3.03;;;5.20;99.90;;;;;;4919422;29;20187;-75
2022/01/06 10:51:01;;;;;;;10.23;3.70;;;5.20;99.90;;;;;;4923913;29;20183;-74
2022/01/06 10:53:27;;;;;;;8.33;3.30;;;5.10;99.90;;;;;;4925450;29;20216;-76
2022/01/06 10:55:53;;;;;;;8.73;3.10;;;5.10;99.90;;;;;;4926252;29;20200;-76
2022/01/06 10:58:25;;;;;;;12.50;3.80;;;5.20;99.90;;;;;;4925116;29;20168;-74
2022/01/06 11:01:01;;;;;;;8.97;3.30;;;5.60;1.00;;;;;;4925082;29;20535;-76
2022/01/06 11:03:33;;;;;;;9.03;3.40;;;6.70;1.00;;;;;;4926265;29;20208;-75
2022/01/06 11:06:01;;;;;;;7.60;3.17;;;7.90;1.00;;;;;;4924355;29;20259;-77
2022/01/06 11:08:29;;;;;;;6.93;3.20;;;8.40;99.90;;;;;;4924693;29;20176;-76
2022/01/06 11:13:52;;;;;;;6.87;2.87;;;8.80;1.00;;;;;;4927285;29;20207;-77
2022/01/06 11:16:19;;;;;;;8.67;2.90;;;8.20;99.90;;;;;;4925615;29;20285;-76
2022/01/06 11:18:56;;;;;;;7.80;3.23;;;7.90;1.00;;;;;;4925904;29;20567;-77
2022/01/06 11:21:43;;;;;;;6.83;3.00;;;7.50;1.00;;;;;;4925337;29;20650;-78
2022/01/06 11:24:20;;;;;;;9.53;3.00;;;7.70;99.90;;;;;;4926249;29;20179;-76
2022/01/06 11:27:06;;;;;;;10.63;3.30;;;6.70;1.00;;;;;;4925515;29;20194;-77
2022/01/06 11:29:35;;;;;;;7.67;3.17;;;6.00;81.50;;;;;;4926349;29;20674;-77
2022/01/06 11:32:15;;;;;;;8.27;3.30;;;5.60;1.00;;;;;;4924478;29;20204;-77
2022/01/06 11:34:41;;;;;;;7.40;3.60;;;5.60;1.00;;;;;;4924122;29;20645;-76
2022/01/06 11:37:12;;;;;;;13.03;2.77;;;5.60;89.60;;;;;;4925400;29;20258;-76
2022/01/06 11:39:37;;;;;;;13.10;3.30;;;5.40;99.90;;;;;;4926316;29;20221;-76
2022/01/06 11:42:23;;;;;;;10.63;2.70;;;5.40;99.90;;;;;;4924782;29;20199;-76
2022/01/06 11:44:54;;;;;;;10.27;3.17;;;5.10;99.90;;;;;;4925089;29;20251;-77
2022/01/06 11:47:35;;;;;;;10.87;3.43;;;5.00;99.90;;;;;;4924225;29;20676;-77
2022/01/06 11:50:24;;;;;;;8.07;3.60;;;5.00;99.90;;;;;;4924358;29;20271;-77
2022/01/06 11:52:55;;;;;;;11.57;3.40;;;5.00;99.90;;;;;;4925224;29;20275;-77
2022/01/06 11:55:22;;;;;;;9.40;3.67;;;5.50;99.90;;;;;;4923915;29;20196;-76
2022/01/06 11:57:48;;;;;;;9.63;3.10;;;5.90;1.00;;;;;;4924552;29;20183;-76
2022/01/06 12:00:22;;;;;;;9.20;2.60;;;6.50;1.00;;;;;;4926083;29;20305;-76
2022/01/06 12:03:03;;;;;;;11.50;3.10;;;7.20;1.00;;;;;;4925062;29;20180;-77
2022/01/06 12:05:49;;;;;;;11.10;2.73;;;7.40;1.00;;;;;;4924506;29;20206;-76
2022/01/06 12:08:32;;;;;;;4.73;2.10;;;7.70;1.00;;;;;;4926417;29;20182;-76
2022/01/06 12:10:58;;;;;;;8.20;3.10;;;7.80;99.90;;;;;;4925764;29;20171;-76
2022/01/06 12:13:23;;;;;;;7.67;2.90;;;6.80;99.90;;;;;;4924394;29;20642;-76
2022/01/06 12:15:54;;;;;;;9.23;2.83;;;6.40;1.00;;;;;;4923555;29;20588;-77
2022/01/06 12:18:26;;;;;;;8.47;2.77;;;5.90;1.00;;;;;;4924186;29;20172;-76
2022/01/06 12:20:53;;;;;;;6.47;2.57;;;5.70;1.00;;;;;;4923681;29;20179;-76
2022/01/06 12:23:20;;;;;;;12.00;3.30;;;5.50;99.90;;;;;;4925410;29;20242;-76
2022/01/06 12:25:55;;;;;;;13.53;3.40;;;5.40;1.00;;;;;;4923922;29;20203;-76
2022/01/06 12:28:21;;;;;;;12.48;3.65;;;5.40;99.90;;;;;;4923139;29;20422;-76
2022/01/06 12:30:46;;;;;;;7.20;2.80;;;5.30;99.90;;;;;;4936545;29;20207;-76
2022/01/06 12:33:14;;;;;;;15.87;3.23;;;5.20;1.00;;;;;;4934452;29;20671;-76
2022/01/06 12:35:45;;;;;;;9.73;2.87;;;5.20;1.00;;;;;;4933822;29;20225;-76
2022/01/06 12:38:12;;;;;;;7.87;2.50;;;5.00;99.90;;;;;;4934520;29;20648;-76
2022/01/06 12:40:42;;;;;;;10.50;2.77;;;4.90;1.00;;;;;;4934363;29;20175;-76
2022/01/06 12:43:16;;;;;;;7.00;3.27;;;5.00;1.00;;;;;;4931650;29;20180;-77
2022/01/06 12:45:43;;;;;;;12.83;3.13;;;5.20;1.00;;;;;;4923943;29;20833;-77
2022/01/06 12:48:09;;;;;;;10.00;3.33;;;5.30;1.00;;;;;;4921353;29;20188;-76
2022/01/06 12:50:47;;;;;;;8.73;3.17;;;5.30;1.00;;;;;;4915368;29;20187;-76
2022/01/06 12:53:30;;;;;;;8.63;2.60;;;5.40;1.00;;;;;;4918597;29;20206;-76
2022/01/06 12:55:56;;;;;;;7.37;3.00;;;6.80;1.00;;;;;;4913878;29;20610;-77
2022/01/06 12:58:25;;;;;;;8.13;2.93;;;8.70;1.00;;;;;;4916160;29;20183;-77
2022/01/06 13:00:59;;;;;;;7.73;3.10;;;10.20;47.30;;;;;;4916014;29;20180;-77
2022/01/06 13:03:30;;;;;;;6.57;2.93;;;10.60;1.00;;;;;;4916300;29;20549;-77
2022/01/06 13:05:56;;;;;;;6.83;2.67;;;9.40;1.00;;;;;;4915344;29;20580;-77
2022/01/06 13:08:22;;;;;;;6.63;2.73;;;8.50;99.90;;;;;;4916544;29;20191;-76
2022/01/06 13:10:47;;;;;;;7.03;2.50;;;7.80;1.00;;;;;;4917080;29;20180;-76